createdAt,value
2018-09-07T00:02:22.916Z,18.00
2018-09-07T00:04:51.808Z,18.00
2018-09-07T00:07:20.631Z,18.00
2018-09-07T00:09:49.502Z,18.00
2018-09-07T00:12:18.347Z,18.00
2018-09-07T00:14:47.180Z,18.00
2018-09-07T00:17:16.062Z,18.00
2018-09-07T00:19:44.952Z,18.00
2018-09-07T00:22:13.927Z,17.90
2018-09-07T00:24:42.758Z,17.90
2018-09-07T00:27:11.629Z,17.90
2018-09-07T00:29:40.515Z,17.90
2018-09-07T00:32:09.372Z,17.90
2018-09-07T00:34:38.301Z,17.80
2018-09-07T00:37:07.231Z,17.80
2018-09-07T00:39:36.149Z,17.80
2018-09-07T00:42:04.983Z,17.80
2018-09-07T00:44:33.888Z,17.80
2018-09-07T00:47:02.757Z,17.80
2018-09-07T00:49:31.668Z,17.80
2018-09-07T00:52:00.537Z,17.80
2018-09-07T00:54:29.462Z,17.80
2018-09-07T00:56:58.319Z,17.90
2018-09-07T00:59:27.247Z,18.00
2018-09-07T01:01:56.082Z,18.00
2018-09-07T01:04:24.932Z,18.00
2018-09-07T01:06:53.788Z,18.10
2018-09-07T01:09:22.598Z,18.20
2018-09-07T01:11:51.516Z,18.20
2018-09-07T01:14:20.387Z,18.30
2018-09-07T01:16:49.407Z,18.30
2018-09-07T01:19:18.251Z,18.30
2018-09-07T01:21:47.129Z,18.30
2018-09-07T01:24:15.968Z,18.30
2018-09-07T01:26:44.853Z,18.30
2018-09-07T01:29:13.674Z,18.30
2018-09-07T01:31:42.536Z,18.40
2018-09-07T01:34:11.441Z,18.40
2018-09-07T01:36:40.242Z,18.40
2018-09-07T01:39:09.072Z,18.40
2018-09-07T01:41:37.988Z,18.40
2018-09-07T01:44:06.897Z,18.30
2018-09-07T01:46:35.813Z,18.30
2018-09-07T01:49:04.671Z,18.30
2018-09-07T01:51:33.502Z,18.20
2018-09-07T01:54:02.420Z,18.20
2018-09-07T01:56:31.300Z,18.10
2018-09-07T01:59:00.201Z,18.10
2018-09-07T02:01:29.141Z,18.00
2018-09-07T02:03:57.966Z,18.00
2018-09-07T02:06:26.828Z,17.90
2018-09-07T02:08:55.699Z,17.90
2018-09-07T02:11:24.543Z,17.90
2018-09-07T02:13:53.408Z,17.90
2018-09-07T02:16:22.247Z,17.90
2018-09-07T02:18:51.086Z,17.80
2018-09-07T02:21:19.948Z,17.80
2018-09-07T02:23:48.864Z,17.80
2018-09-07T02:26:17.724Z,17.90
2018-09-07T02:28:46.648Z,17.90
2018-09-07T02:31:15.487Z,17.90
2018-09-07T02:33:44.412Z,17.90
2018-09-07T02:36:13.242Z,17.70
2018-09-07T02:38:42.063Z,17.50
2018-09-07T02:41:10.965Z,17.50
2018-09-07T02:43:39.934Z,17.40
2018-09-07T02:46:08.907Z,17.50
2018-09-07T02:48:37.816Z,17.40
2018-09-07T02:51:06.788Z,17.50
2018-09-07T02:53:35.614Z,17.50
2018-09-07T02:56:04.529Z,17.50
2018-09-07T02:58:33.407Z,17.60
2018-09-07T03:01:02.451Z,17.40
2018-09-07T03:03:31.397Z,17.40
2018-09-07T03:06:00.288Z,17.40
2018-09-07T03:08:29.154Z,17.30
2018-09-07T03:10:58.026Z,17.40
2018-09-07T03:13:26.872Z,17.30
2018-09-07T03:15:55.748Z,17.40
2018-09-07T03:18:25.006Z,17.40
2018-09-07T03:20:53.891Z,17.50
2018-09-07T03:23:22.856Z,17.50
2018-09-07T03:25:51.753Z,17.60
2018-09-07T03:28:20.633Z,17.50
2018-09-07T03:30:49.511Z,17.60
2018-09-07T03:33:18.363Z,17.70
2018-09-07T03:35:47.240Z,17.80
2018-09-07T03:38:16.101Z,17.90
2018-09-07T03:40:44.952Z,18.00
2018-09-07T03:43:13.844Z,18.10
2018-09-07T03:45:42.714Z,18.20
2018-09-07T03:48:11.585Z,18.20
2018-09-07T03:50:40.478Z,18.30
2018-09-07T03:53:09.284Z,18.30
2018-09-07T03:55:38.111Z,18.40
2018-09-07T03:58:06.993Z,18.40
2018-09-07T04:00:35.836Z,18.50
2018-09-07T04:03:04.917Z,18.50
2018-09-07T04:05:33.836Z,18.60
2018-09-07T04:08:02.739Z,18.60
2018-09-07T04:10:31.674Z,18.60
2018-09-07T04:13:00.560Z,18.60
2018-09-07T04:15:29.439Z,18.70
2018-09-07T04:17:58.311Z,18.70
2018-09-07T04:20:27.168Z,18.70
2018-09-07T04:22:56.093Z,18.70
2018-09-07T04:25:25.014Z,18.70
2018-09-07T04:27:53.833Z,18.70
2018-09-07T04:30:22.731Z,18.70
2018-09-07T04:32:51.636Z,18.70
2018-09-07T04:35:20.497Z,18.70
2018-09-07T04:37:49.507Z,18.70
2018-09-07T04:40:18.359Z,18.70
2018-09-07T04:42:47.532Z,18.70
2018-09-07T04:45:16.555Z,18.60
2018-09-07T04:47:45.528Z,18.40
2018-09-07T04:50:14.382Z,18.40
2018-09-07T04:52:43.235Z,18.40
2018-09-07T04:55:12.271Z,18.40
2018-09-07T04:57:41.168Z,18.40
2018-09-07T05:00:10.408Z,18.50
2018-09-07T05:05:00.089Z,18.50
2018-09-07T05:07:28.945Z,18.50
2018-09-07T05:09:57.829Z,18.50
2018-09-07T05:12:26.785Z,18.50
2018-09-07T05:14:55.649Z,18.30
2018-09-07T05:17:24.490Z,18.10
2018-09-07T05:19:53.411Z,17.80
2018-09-07T05:22:22.309Z,17.50
2018-09-07T05:24:51.185Z,17.40
2018-09-07T05:27:20.026Z,17.50
2018-09-07T05:29:48.858Z,17.40
2018-09-07T05:32:17.760Z,17.60
2018-09-07T05:34:46.652Z,17.70
2018-09-07T05:37:15.503Z,17.70
2018-09-07T05:39:45.675Z,17.60
2018-09-07T05:42:14.818Z,17.70
2018-09-07T05:44:43.931Z,17.70
2018-09-07T05:47:13.078Z,17.70
2018-09-07T05:49:42.196Z,17.60
2018-09-07T05:52:11.061Z,17.60
2018-09-07T05:54:39.904Z,17.80
2018-09-07T05:57:08.779Z,17.80
2018-09-07T05:59:37.684Z,17.70
2018-09-07T06:02:06.610Z,17.90
2018-09-07T06:04:35.430Z,18.10
2018-09-07T06:07:04.283Z,18.20
2018-09-07T06:09:33.137Z,18.20
2018-09-07T06:12:01.958Z,18.20
2018-09-07T06:14:30.858Z,18.10
2018-09-07T06:16:59.700Z,18.10
2018-09-07T06:19:28.613Z,17.90
2018-09-07T06:21:57.592Z,18.10
2018-09-07T06:24:26.496Z,18.10
2018-09-07T06:26:55.334Z,18.20
2018-09-07T06:29:24.142Z,18.20
2018-09-07T06:31:52.967Z,18.40
2018-09-07T06:34:21.783Z,18.50
2018-09-07T06:36:50.719Z,18.60
2018-09-07T06:39:19.638Z,18.90
2018-09-07T06:41:48.508Z,19.00
2018-09-07T06:44:17.571Z,19.00
2018-09-07T06:46:46.407Z,18.90
2018-09-07T06:49:15.321Z,18.80
2018-09-07T06:51:44.217Z,18.70
2018-09-07T06:54:13.082Z,18.70
2018-09-07T06:56:41.943Z,18.80
2018-09-07T06:59:10.793Z,18.90
2018-09-07T07:01:39.652Z,19.10
2018-09-07T07:04:08.554Z,19.20
2018-09-07T07:06:37.469Z,19.50
2018-09-07T07:09:06.582Z,19.20
2018-09-07T07:11:35.456Z,19.20
2018-09-07T07:14:04.400Z,19.20
2018-09-07T07:16:33.235Z,19.10
2018-09-07T07:19:02.154Z,18.50
2018-09-07T07:21:31.015Z,18.30
2018-09-07T07:23:59.922Z,18.10
2018-09-07T07:26:28.785Z,18.70
2018-09-07T07:28:57.636Z,18.60
2018-09-07T07:31:26.537Z,19.10
2018-09-07T07:33:55.408Z,19.20
2018-09-07T07:36:24.437Z,19.60
2018-09-07T07:38:53.307Z,19.70
2018-09-07T07:41:22.180Z,19.80
2018-09-07T07:43:51.028Z,20.00
2018-09-07T07:46:19.870Z,20.00
2018-09-07T07:48:48.770Z,19.90
2018-09-07T07:51:17.616Z,20.20
2018-09-07T07:53:46.539Z,20.50
2018-09-07T07:56:15.383Z,20.80
2018-09-07T07:58:44.199Z,20.80
2018-09-07T08:01:13.052Z,20.70
2018-09-07T08:03:41.922Z,20.60
2018-09-07T08:06:10.755Z,20.50
2018-09-07T08:08:39.604Z,20.40
2018-09-07T08:11:08.551Z,20.20
2018-09-07T08:13:37.407Z,19.90
2018-09-07T08:16:06.345Z,20.00
2018-09-07T08:18:35.152Z,19.90
2018-09-07T08:21:04.413Z,19.90
2018-09-07T08:23:33.264Z,19.90
2018-09-07T08:26:02.273Z,20.00
2018-09-07T08:28:31.127Z,20.00
2018-09-07T08:31:00.012Z,20.10
2018-09-07T08:33:28.893Z,19.90
2018-09-07T08:35:57.779Z,20.10
2018-09-07T08:38:26.621Z,20.00
2018-09-07T08:40:55.570Z,20.00
2018-09-07T08:43:24.491Z,20.10
2018-09-07T08:45:53.343Z,20.10
2018-09-07T08:48:22.208Z,19.90
2018-09-07T08:50:51.093Z,19.90
2018-09-07T08:53:19.989Z,20.00
2018-09-07T08:55:48.834Z,20.10
2018-09-07T08:58:17.722Z,20.30
2018-09-07T09:00:46.535Z,20.50
2018-09-07T09:03:15.480Z,20.90
2018-09-07T09:05:44.373Z,21.10
2018-09-07T09:08:13.295Z,20.30
2018-09-07T09:10:42.191Z,20.90
2018-09-07T09:13:11.079Z,21.00
2018-09-07T09:15:39.973Z,21.20
2018-09-07T09:18:08.972Z,21.50
2018-09-07T09:20:37.816Z,21.60
2018-09-07T09:23:07.003Z,21.70
2018-09-07T09:25:35.869Z,21.80
2018-09-07T09:28:04.765Z,21.70
2018-09-07T09:30:33.744Z,21.90
2018-09-07T09:33:02.698Z,22.10
2018-09-07T09:35:31.543Z,22.00
2018-09-07T09:38:00.379Z,21.90
2018-09-07T09:40:29.239Z,21.70
2018-09-07T09:42:58.164Z,21.50
2018-09-07T09:45:27.006Z,21.40
2018-09-07T09:47:55.917Z,21.50
2018-09-07T09:50:24.850Z,21.40
2018-09-07T09:52:53.726Z,21.90
2018-09-07T09:55:22.659Z,21.90
2018-09-07T09:57:51.776Z,22.40
2018-09-07T10:00:26.015Z,22.60
2018-09-07T10:03:00.175Z,22.50
2018-09-07T10:05:29.054Z,23.00
2018-09-07T10:07:57.929Z,23.20
2018-09-07T10:10:26.811Z,23.40
2018-09-07T10:12:55.672Z,23.90
2018-09-07T10:15:24.479Z,23.40
2018-09-07T10:17:53.339Z,23.30
2018-09-07T10:20:22.227Z,23.60
2018-09-07T10:22:51.050Z,23.40
2018-09-07T10:25:19.951Z,23.10
2018-09-07T10:27:48.889Z,23.50
2018-09-07T10:30:17.792Z,23.50
2018-09-07T10:32:47.569Z,23.40
2018-09-07T10:35:16.471Z,23.30
2018-09-07T10:37:45.423Z,23.50
2018-09-07T10:40:14.256Z,23.00
2018-09-07T10:42:43.154Z,23.20
2018-09-07T10:45:12.035Z,23.00
2018-09-07T10:47:40.939Z,22.50
2018-09-07T10:50:09.859Z,22.60
2018-09-07T10:52:38.884Z,22.80
2018-09-07T10:55:07.777Z,22.60
2018-09-07T10:57:36.635Z,22.40
2018-09-07T11:00:05.548Z,22.00
2018-09-07T11:02:34.412Z,21.70
2018-09-07T11:05:03.239Z,21.40
2018-09-07T11:07:32.154Z,21.30
2018-09-07T11:10:00.991Z,21.10
2018-09-07T11:12:29.786Z,21.10
2018-09-07T11:14:58.656Z,21.20
2018-09-07T11:17:27.483Z,21.20
2018-09-07T11:19:56.347Z,21.40
2018-09-07T11:22:25.215Z,21.40
2018-09-07T11:24:54.141Z,21.70
2018-09-07T11:27:23.012Z,22.10
2018-09-07T11:29:51.900Z,22.10
2018-09-07T11:32:20.728Z,22.30
2018-09-07T11:34:49.648Z,22.70
2018-09-07T11:37:18.590Z,22.80
2018-09-07T11:39:47.460Z,22.40
2018-09-07T11:42:16.327Z,22.20
2018-09-07T11:44:45.212Z,22.40
2018-09-07T11:47:14.159Z,22.80
2018-09-07T11:49:43.010Z,22.90
2018-09-07T11:52:11.924Z,22.60
2018-09-07T11:54:40.801Z,22.50
2018-09-07T11:57:10.020Z,22.20
2018-09-07T11:59:38.900Z,21.90
2018-09-07T12:02:07.805Z,21.80
2018-09-07T12:04:36.750Z,22.00
2018-09-07T12:07:05.542Z,22.70
2018-09-07T12:09:34.404Z,23.90
2018-09-07T12:12:03.255Z,26.00
2018-09-07T12:14:32.135Z,28.40
2018-09-07T12:17:00.992Z,28.60
2018-09-07T12:19:29.883Z,29.60
2018-09-07T12:21:58.736Z,28.20
2018-09-07T12:24:27.589Z,28.40
2018-09-07T12:26:56.483Z,28.30
2018-09-07T12:29:25.620Z,28.90
2018-09-07T12:31:54.692Z,29.40
2018-09-07T12:34:24.420Z,29.90
2018-09-07T12:36:53.676Z,29.80
2018-09-07T12:39:22.532Z,30.50
2018-09-07T12:41:51.774Z,30.40
2018-09-07T12:44:20.677Z,31.00
2018-09-07T12:46:49.526Z,32.50
2018-09-07T12:49:18.796Z,33.60
2018-09-07T12:51:49.039Z,33.40
2018-09-07T12:54:17.933Z,33.30
2018-09-07T12:56:46.759Z,33.60
2018-09-07T12:59:15.624Z,33.30
2018-09-07T13:01:44.555Z,31.50
2018-09-07T13:04:14.792Z,31.80
2018-09-07T13:06:46.737Z,31.70
2018-09-07T13:09:16.445Z,33.20
2018-09-07T13:11:45.287Z,35.40
2018-09-07T13:14:14.118Z,37.30
2018-09-07T13:16:43.817Z,38.30
2018-09-07T13:19:12.726Z,36.10
2018-09-07T13:21:41.777Z,34.00
2018-09-07T13:24:10.776Z,34.30
2018-09-07T13:26:39.666Z,33.70
2018-09-07T13:29:08.689Z,33.80
2018-09-07T13:31:37.526Z,34.00
2018-09-07T13:34:06.409Z,33.00
2018-09-07T13:36:35.883Z,32.00
2018-09-07T13:39:07.474Z,31.00
2018-09-07T13:44:06.310Z,32.00
2018-09-07T13:46:35.422Z,32.80
2018-09-07T13:49:04.399Z,32.70
2018-09-07T13:51:33.267Z,33.90
2018-09-07T13:54:02.197Z,35.70
2018-09-07T13:56:31.455Z,37.00
2018-09-07T13:59:00.316Z,37.90
2018-09-07T14:01:29.327Z,36.90
2018-09-07T14:03:58.183Z,35.00
2018-09-07T14:06:28.104Z,36.20
2018-09-07T14:08:56.934Z,37.30
2018-09-07T14:11:25.965Z,38.60
2018-09-07T14:13:54.862Z,40.40
2018-09-07T14:16:23.785Z,41.80
2018-09-07T14:18:52.542Z,41.30
2018-09-07T14:21:21.562Z,40.20
2018-09-07T14:23:50.581Z,40.10
2018-09-07T14:26:23.476Z,41.30
2018-09-07T14:28:52.701Z,40.90
2018-09-07T14:31:22.206Z,39.20
2018-09-07T14:33:51.081Z,38.70
2018-09-07T14:36:19.985Z,35.90
2018-09-07T14:38:48.976Z,36.30
2018-09-07T14:41:17.839Z,37.60
2018-09-07T14:43:46.828Z,35.60
2018-09-07T14:46:15.773Z,36.20
2018-09-07T14:48:44.708Z,36.90
2018-09-07T14:51:13.539Z,35.40
2018-09-07T14:53:42.443Z,36.60
2018-09-07T14:56:11.308Z,36.50
2018-09-07T14:58:40.156Z,37.00
2018-09-07T15:01:10.039Z,37.70
2018-09-07T15:03:38.956Z,36.10
2018-09-07T15:06:08.259Z,33.70
2018-09-07T15:08:37.131Z,33.40
2018-09-07T15:11:07.138Z,33.90
2018-09-07T15:13:36.316Z,33.20
2018-09-07T15:16:05.247Z,32.10
2018-09-07T15:18:34.112Z,31.70
2018-09-07T15:21:02.985Z,30.50
2018-09-07T15:23:32.377Z,29.50
2018-09-07T15:26:01.338Z,28.20
2018-09-07T15:28:30.292Z,28.20
2018-09-07T15:30:59.178Z,27.80
2018-09-07T15:33:28.077Z,27.30
2018-09-07T15:35:57.001Z,27.30
2018-09-07T15:38:25.814Z,27.20
2018-09-07T15:40:54.740Z,26.50
2018-09-07T15:43:24.846Z,26.70
2018-09-07T15:45:54.771Z,26.90
2018-09-07T15:48:23.698Z,27.30
2018-09-07T15:50:52.545Z,27.30
2018-09-07T15:53:21.437Z,26.70
2018-09-07T15:55:50.288Z,26.80
2018-09-07T15:58:19.115Z,26.70
2018-09-07T16:00:48.017Z,26.30
2018-09-07T16:03:16.892Z,25.90
2018-09-07T16:08:16.812Z,25.10
2018-09-07T16:10:45.704Z,25.00
2018-09-07T16:13:14.578Z,25.20
2018-09-07T16:15:49.282Z,25.30
2018-09-07T16:18:18.256Z,25.50
2018-09-07T16:20:47.197Z,25.50
2018-09-07T16:23:16.046Z,25.50
2018-09-07T16:25:44.920Z,25.40
2018-09-07T16:28:13.807Z,25.30
2018-09-07T16:30:42.785Z,25.10
2018-09-07T16:33:11.621Z,25.00
2018-09-07T16:35:40.415Z,25.00
2018-09-07T16:38:09.260Z,24.90
2018-09-07T16:40:38.141Z,25.00
2018-09-07T16:43:06.953Z,25.00
2018-09-07T16:45:35.815Z,25.00
2018-09-07T16:48:04.680Z,25.10
2018-09-07T16:50:33.589Z,24.90
2018-09-07T16:53:02.428Z,24.80
2018-09-07T16:55:31.320Z,24.60
2018-09-07T16:58:00.265Z,24.60
2018-09-07T17:00:29.112Z,24.70
2018-09-07T17:02:57.973Z,24.50
2018-09-07T17:05:26.832Z,24.30
2018-09-07T17:07:55.748Z,23.60
2018-09-07T17:10:24.589Z,23.40
2018-09-07T17:12:53.456Z,23.20
2018-09-07T17:15:22.292Z,22.90
2018-09-07T17:17:51.162Z,23.00
2018-09-07T17:20:20.058Z,23.10
2018-09-07T17:22:48.952Z,23.10
2018-09-07T17:25:17.805Z,23.20
2018-09-07T17:27:46.683Z,23.20
2018-09-07T17:30:15.621Z,23.20
2018-09-07T17:32:44.460Z,23.30
2018-09-07T17:35:13.354Z,23.20
2018-09-07T17:37:42.296Z,23.10
2018-09-07T17:40:11.278Z,23.10
2018-09-07T17:42:40.359Z,22.90
2018-09-07T17:45:09.335Z,22.80
2018-09-07T17:47:38.183Z,22.60
2018-09-07T17:50:07.052Z,22.40
2018-09-07T17:52:35.889Z,22.50
2018-09-07T17:55:04.788Z,22.40
2018-09-07T17:57:33.634Z,22.20
2018-09-07T18:00:02.487Z,22.10
2018-09-07T18:02:31.373Z,22.10
2018-09-07T18:05:00.324Z,22.10
2018-09-07T18:07:29.138Z,21.90
2018-09-07T18:09:58.051Z,21.80
2018-09-07T18:12:26.920Z,21.90
2018-09-07T18:14:55.761Z,21.90
2018-09-07T18:17:24.620Z,21.90
2018-09-07T18:19:53.446Z,21.90
2018-09-07T18:22:22.274Z,21.90
2018-09-07T18:24:51.119Z,21.90
2018-09-07T18:27:19.944Z,21.90
2018-09-07T18:29:48.838Z,21.90
2018-09-07T18:32:17.669Z,21.90
2018-09-07T18:34:46.522Z,21.90
2018-09-07T18:37:15.360Z,21.90
2018-09-07T18:39:44.204Z,21.90
2018-09-07T18:42:13.085Z,21.80
2018-09-07T18:44:41.987Z,21.80
2018-09-07T18:47:11.195Z,21.80
2018-09-07T18:49:40.032Z,21.70
2018-09-07T18:52:08.895Z,21.50
2018-09-07T18:54:37.700Z,21.30
2018-09-07T18:57:06.543Z,21.10
2018-09-07T18:59:35.444Z,21.00
2018-09-07T19:02:04.319Z,20.90
2018-09-07T19:04:33.203Z,20.80
2018-09-07T19:07:02.092Z,20.60
2018-09-07T19:09:30.903Z,20.50
2018-09-07T19:11:59.835Z,20.40
2018-09-07T19:14:28.869Z,20.40
2018-09-07T19:16:57.728Z,20.30
2018-09-07T19:19:26.558Z,20.30
2018-09-07T19:21:55.464Z,20.20
2018-09-07T19:24:24.348Z,20.30
2018-09-07T19:26:53.192Z,20.30
2018-09-07T19:29:22.078Z,20.30
2018-09-07T19:31:50.943Z,20.30
2018-09-07T19:34:19.808Z,20.30
2018-09-07T19:36:48.664Z,20.30
2018-09-07T19:39:17.540Z,20.30
2018-09-07T19:41:46.347Z,20.30
2018-09-07T19:44:15.223Z,20.40
2018-09-07T19:46:44.166Z,20.30
2018-09-07T19:49:13.098Z,20.40
2018-09-07T19:51:42.136Z,20.40
2018-09-07T19:54:11.008Z,20.30
2018-09-07T19:56:39.816Z,20.40
2018-09-07T19:59:08.631Z,20.40
2018-09-07T20:01:37.532Z,20.30
2018-09-07T20:04:06.337Z,20.30
2018-09-07T20:06:35.250Z,20.40
2018-09-07T20:09:05.564Z,20.40
2018-09-07T20:11:34.547Z,20.40
2018-09-07T20:14:03.615Z,20.50
2018-09-07T20:16:32.475Z,20.50
2018-09-07T20:19:01.457Z,20.50
2018-09-07T20:21:30.324Z,20.30
2018-09-07T20:23:59.188Z,20.30
2018-09-07T20:26:28.065Z,20.20
2018-09-07T20:28:56.949Z,20.20
2018-09-07T20:31:25.803Z,20.20
2018-09-07T20:33:54.712Z,20.20
2018-09-07T20:36:23.584Z,20.30
2018-09-07T20:38:52.424Z,20.30
2018-09-07T20:41:21.301Z,20.40
2018-09-07T20:43:50.122Z,20.40
2018-09-07T20:46:18.972Z,20.30
2018-09-07T20:48:47.869Z,20.30
2018-09-07T20:51:16.789Z,20.20
2018-09-07T20:53:45.632Z,20.20
2018-09-07T20:56:14.487Z,20.20
2018-09-07T20:58:43.409Z,20.20
2018-09-07T21:01:12.310Z,20.20
2018-09-07T21:03:41.164Z,20.20
2018-09-07T21:06:10.981Z,20.00
2018-09-07T21:08:41.562Z,20.00
2018-09-07T21:11:11.747Z,20.00
2018-09-07T21:13:40.761Z,20.00
2018-09-07T21:16:09.660Z,19.80
2018-09-07T21:18:38.512Z,19.80
2018-09-07T21:21:07.360Z,19.80
2018-09-07T21:23:36.252Z,19.80
2018-09-07T21:26:05.333Z,19.80
2018-09-07T21:28:34.277Z,19.70
2018-09-07T21:31:03.138Z,19.70
2018-09-07T21:33:31.993Z,19.60
2018-09-07T21:36:00.826Z,19.60
2018-09-07T21:38:29.666Z,19.50
2018-09-07T21:40:58.541Z,19.50
2018-09-07T21:43:27.432Z,19.50
2018-09-07T21:45:56.303Z,19.40
2018-09-07T21:48:25.148Z,19.50
2018-09-07T21:50:54.040Z,19.50
2018-09-07T21:53:22.886Z,19.40
2018-09-07T21:55:51.784Z,19.40
2018-09-07T21:58:20.633Z,19.40
2018-09-07T22:00:49.551Z,19.10
2018-09-07T22:03:18.411Z,19.10
2018-09-07T22:05:47.268Z,19.10
2018-09-07T22:08:17.883Z,19.10
2018-09-07T22:10:46.759Z,18.80
2018-09-07T22:13:15.583Z,18.90
2018-09-07T22:15:44.427Z,18.80
2018-09-07T22:18:13.254Z,18.80
2018-09-07T22:20:42.175Z,18.80
2018-09-07T22:23:11.029Z,18.80
2018-09-07T22:25:39.925Z,18.80
2018-09-07T22:28:08.786Z,18.70
2018-09-07T22:30:37.631Z,18.60
2018-09-07T22:33:06.492Z,18.50
2018-09-07T22:35:35.366Z,18.30
2018-09-07T22:38:04.273Z,18.30
2018-09-07T22:40:33.171Z,18.20
2018-09-07T22:43:02.060Z,18.10
2018-09-07T22:45:30.928Z,18.10
2018-09-07T22:47:59.812Z,17.90
2018-09-07T22:50:28.642Z,17.90
2018-09-07T22:52:57.451Z,17.80
2018-09-07T22:55:26.359Z,17.70
2018-09-07T22:57:55.249Z,17.60
2018-09-07T23:00:24.452Z,17.60
2018-09-07T23:02:54.122Z,17.50
2018-09-07T23:05:22.953Z,17.50
2018-09-07T23:07:53.040Z,17.40
2018-09-07T23:10:21.951Z,17.30
2018-09-07T23:12:50.794Z,17.40
2018-09-07T23:15:19.606Z,17.30
2018-09-07T23:17:48.508Z,17.30
2018-09-07T23:20:17.376Z,17.20
2018-09-07T23:22:46.306Z,17.20
2018-09-07T23:25:15.126Z,17.00
2018-09-07T23:27:43.996Z,16.90
2018-09-07T23:30:12.877Z,16.80
2018-09-07T23:32:41.717Z,16.80
2018-09-07T23:35:10.630Z,16.80
2018-09-07T23:37:39.485Z,16.80
2018-09-07T23:40:08.352Z,16.70
2018-09-07T23:42:37.195Z,16.60
2018-09-07T23:45:06.230Z,16.60
2018-09-07T23:47:35.053Z,16.50
2018-09-07T23:50:03.954Z,16.50
2018-09-07T23:52:32.766Z,16.50
2018-09-07T23:55:01.619Z,16.50
2018-09-07T23:57:30.471Z,16.30
2018-09-07T23:59:59.350Z,16.20
